Terminal Aerodrome Forecast
Issued by NWS

Home | Current Version | Previous Version | Text Only | Print | Product List | Glossary On
Versions: 1 2 3 4 5 6 7 8 9 10 11 12 13 14 15 16 17 18 19
170
FTUS46 KSEW 272346
TAFBFI
TAF
KBFI 272346Z 2800/2824 VRB06KT P6SM -SHRA BKN018 OVC030
      TEMPO 2800/2803 3SM -SHRASN BR BKN008 OVC015
     FM280300 15004KT P6SM VCSH SCT015 BKN025 OVC040
     FM281400 15005KT P6SM SCT015 OVC020=

USA.gov is the U.S. government's official web portal to all federal, state and local government web resources and services.